Terminal Aerodrome Forecast
Issued by NWS

Current Version | Previous Version | Graphics & Text | Print | Product List | Glossary On
Versions: 1 2 3 4 5 6 7 8 9 10 11 12 13 14 15 16 17 18 19 20 21 22
481
FTUS41 KILN 191141
TAFLUK
TAF
KLUK 191141Z 1912/2012 23003KT 5SM BR OVC007
     FM191500 25004KT P6SM OVC007
     FM191700 24004KT P6SM BKN015 BKN025
     FM191900 24004KT P6SM SCT025 BKN040
     FM192000 24004KT P6SM FEW025 SCT110
     FM200600 00000KT P6SM SCT080
     FM201000 00000KT P6SM BKN060=

USA.gov is the U.S. government's official web portal to all federal, state and local government web resources and services.